Time;durP1;ratioP1;P1;durP2;ratioP2;P2;SDS_P1;SDS_P2;PMS_P1;PMS_P2;Temp;Humidity;BMP_temperature;BMP_pressure;BME280_temperature;BME280_humidity;BME280_pressure;Samples;Min_cycle;Max_cycle;Signal;HPM_P1;HPM_P2
2021/03/28 00:02:16;;;;;;;48.30;25.25;;;;;;;7.57;48.21;96138.72;5050604;28;20201;-65
2021/03/28 00:04:52;;;;;;;55.75;28.38;;;;;;;7.58;47.99;96150.75;5050693;28;20189;-65
2021/03/28 00:07:21;;;;;;;63.65;32.88;;;;;;;7.57;47.91;96146.53;5050865;28;20196;-64
2021/03/28 00:09:55;;;;;;;66.78;32.92;;;;;;;7.29;48.90;96146.00;5050053;28;20220;-65
2021/03/28 00:12:25;;;;;;;74.63;37.72;;;;;;;7.47;48.42;96153.97;5050955;28;20208;-64
2021/03/28 00:15:16;;;;;;;77.40;38.50;;;;;;;7.33;48.63;96153.25;5050506;28;20196;-66
2021/03/28 00:18:03;;;;;;;75.35;37.13;;;;;;;7.22;49.68;96159.84;5050939;28;20197;-65
2021/03/28 00:20:33;;;;;;;81.40;42.03;;;;;;;7.17;49.42;96159.66;5050548;28;20197;-65
2021/03/28 00:23:08;;;;;;;100.32;46.80;;;;;;;7.25;49.69;96160.47;5050901;28;20223;-66
2021/03/28 00:25:40;;;;;;;110.07;51.87;;;;;;;7.11;49.73;96160.50;5050335;28;20184;-64
2021/03/28 00:28:20;;;;;;;115.10;54.65;;;;;;;7.11;49.82;96160.50;5050718;28;20445;-63
2021/03/28 00:30:49;;;;;;;110.25;56.20;;;;;;;7.14;49.60;96164.50;5050092;28;20235;-63
2021/03/28 00:33:22;;;;;;;121.55;57.42;;;;;;;7.11;49.51;96157.09;5058097;28;20666;-65
2021/03/28 00:36:00;;;;;;;123.47;57.63;;;;;;;7.18;49.67;96160.47;5050288;28;20212;-63
2021/03/28 00:38:45;;;;;;;113.25;53.15;;;;;;;6.87;50.35;96157.72;5050651;28;20199;-63
2021/03/28 00:41:23;;;;;;;106.78;51.13;;;;;;;6.84;50.09;96169.31;5050000;28;20204;-63
2021/03/28 00:44:05;;;;;;;103.75;52.33;;;;;;;6.78;50.46;96170.16;5050396;28;20315;-63
2021/03/28 00:46:34;;;;;;;113.55;53.92;;;;;;;6.60;51.01;96167.34;5050092;28;20299;-65
2021/03/28 00:49:19;;;;;;;125.45;58.53;;;;;;;6.71;50.63;96169.34;5050719;28;20606;-65
2021/03/28 00:51:49;;;;;;;122.63;59.75;;;;;;;6.82;50.76;96165.31;5048525;28;20204;-63
2021/03/28 00:54:21;;;;;;;131.27;63.60;;;;;;;6.71;50.64;96164.13;5048650;28;20211;-65
2021/03/28 00:56:52;;;;;;;124.47;61.60;;;;;;;6.63;50.80;96156.50;5048370;28;20204;-64
2021/03/28 00:59:34;;;;;;;133.57;63.40;;;;;;;6.61;51.28;96161.13;5049075;28;20204;-63
2021/03/28 01:02:26;;;;;;;118.28;58.25;;;;;;;6.57;51.34;96174.75;5048503;28;20204;-64
2021/03/28 01:05:20;;;;;;;126.68;62.15;;;;;;;6.18;52.54;96177.28;5049663;28;20192;-66
2021/03/28 01:07:52;;;;;;;135.07;59.63;;;;;;;5.72;53.59;96171.88;5048613;28;20236;-64
2021/03/28 01:10:41;;;;;;;103.05;47.70;;;;;;;5.71;53.35;96162.50;5049778;28;20609;-64
2021/03/28 01:13:58;;;;;;;78.38;38.22;;;;;;;5.63;53.93;96162.66;5050031;28;20274;-64
2021/03/28 01:16:34;;;;;;;64.72;34.50;;;;;;;5.56;54.26;96161.81;5049754;28;20192;-64
2021/03/28 01:19:03;;;;;;;63.13;32.95;;;;;;;5.63;53.37;96163.44;5050024;28;20302;-63
2021/03/28 01:21:55;;;;;;;59.78;31.23;;;;;;;5.40;54.26;96162.16;5049087;28;20635;-65
2021/03/28 01:24:30;;;;;;;57.45;31.83;;;;;;;5.29;54.71;96170.47;5050380;28;20200;-64
2021/03/28 01:27:24;;;;;;;54.95;29.55;;;;;;;5.35;54.14;96164.50;5049335;28;20230;-66
2021/03/28 01:30:11;;;;;;;49.25;28.63;;;;;;;5.60;53.70;96165.66;5049546;28;20230;-65
2021/03/28 01:32:43;;;;;;;52.95;28.73;;;;;;;5.59;53.52;96161.41;5049954;28;20288;-65
2021/03/28 01:35:17;;;;;;;51.10;28.90;;;;;;;5.71;53.56;96167.69;5048391;28;20203;-66
2021/03/28 01:38:04;;;;;;;54.42;28.20;;;;;;;5.73;53.70;96156.09;5049935;28;20275;-66
2021/03/28 01:40:54;;;;;;;56.75;30.30;;;;;;;5.91;53.40;96166.00;5049272;28;20220;-65
2021/03/28 01:43:46;;;;;;;45.80;28.27;;;;;;;5.97;52.90;96165.19;5050148;28;20292;-65
2021/03/28 01:46:24;;;;;;;51.03;27.75;;;;;;;6.08;52.30;96172.44;5049557;28;20203;-65
2021/03/28 01:48:56;;;;;;;56.95;30.73;;;;;;;6.03;52.38;96174.81;5049867;28;20195;-65
2021/03/28 01:51:49;;;;;;;54.58;30.20;;;;;;;6.16;52.15;96174.88;5049125;28;20197;-66
2021/03/28 01:54:44;;;;;;;53.58;29.25;;;;;;;5.93;52.72;96174.41;5050466;28;20201;-68
2021/03/28 01:57:35;;;;;;;54.10;30.67;;;;;;;5.86;52.94;96170.97;5050039;28;20205;-66
2021/03/28 02:00:22;;;;;;;64.03;31.23;;;;;;;5.85;52.99;96177.16;5049226;28;20227;-65
2021/03/28 02:02:58;;;;;;;62.00;34.97;;;;;;;5.99;52.71;96169.22;5054812;28;20191;-66
2021/03/28 02:05:33;;;;;;;60.72;32.40;;;;;;;5.39;54.22;96181.31;5049386;28;20208;-65
2021/03/28 02:08:24;;;;;;;58.90;32.53;;;;;;;5.45;54.25;96177.97;5049353;28;20229;-65
2021/03/28 02:10:54;;;;;;;56.92;31.83;;;;;;;5.46;54.43;96172.56;5049156;28;20592;-65
2021/03/28 02:13:26;;;;;;;55.30;30.90;;;;;;;5.58;54.17;96175.44;5049642;28;20197;-65
2021/03/28 02:16:11;;;;;;;59.95;31.63;;;;;;;5.60;53.91;96173.44;5050000;28;20196;-65
2021/03/28 02:18:51;;;;;;;59.78;32.65;;;;;;;5.74;53.62;96167.28;5053032;28;20666;-65
2021/03/28 02:21:39;;;;;;;56.47;32.33;;;;;;;5.69;53.79;96172.28;5051647;28;20670;-65
2021/03/28 02:24:24;;;;;;;60.20;33.20;;;;;;;5.62;53.48;96176.66;5053281;28;20204;-65
2021/03/28 02:27:05;;;;;;;72.53;39.42;;;;;;;5.63;53.71;96180.84;5052428;28;20200;-64
2021/03/28 02:29:50;;;;;;;84.10;43.33;;;;;;;5.55;54.16;96178.41;5053176;28;20204;-65
2021/03/28 02:32:44;;;;;;;85.43;43.13;;;;;;;5.61;54.06;96180.22;5052907;28;20202;-65
2021/03/28 02:35:41;;;;;;;79.55;42.15;;;;;;;5.78;53.72;96187.53;5052249;28;20196;-64
2021/03/28 02:38:32;;;;;;;83.55;42.83;;;;;;;5.88;52.94;96181.97;5052872;28;20666;-66
2021/03/28 02:41:18;;;;;;;78.68;40.42;;;;;;;5.60;53.63;96184.63;5051120;28;20228;-66
2021/03/28 02:43:48;;;;;;;77.43;41.83;;;;;;;5.57;53.76;96189.41;5053048;28;20199;-66
2021/03/28 02:46:45;;;;;;;84.60;41.83;;;;;;;5.38;54.31;96195.31;5052511;28;20196;-66
2021/03/28 02:49:23;;;;;;;106.22;51.08;;;;;;;5.08;54.57;96185.16;5081244;28;20200;-66
2021/03/28 02:52:11;;;;;;;134.65;68.90;;;;;;;5.15;55.02;96191.19;5072112;28;20196;-65
2021/03/28 02:54:45;;;;;;;122.82;57.72;;;;;;;4.99;55.46;96196.66;5072255;28;20224;-64
2021/03/28 02:57:50;;;;;;;133.10;60.00;;;;;;;5.16;54.98;96200.56;5072538;28;20580;-65
2021/03/28 03:00:53;;;;;;;134.02;62.72;;;;;;;5.22;55.12;96201.59;5069121;28;20330;-65
2021/03/28 03:03:54;;;;;;;146.00;70.30;;;;;;;5.12;55.54;96195.97;5092511;28;20205;-65
2021/03/28 03:06:38;;;;;;;146.60;67.95;;;;;;;4.91;56.00;96203.78;5092327;28;20202;-65
2021/03/28 03:09:20;;;;;;;133.52;65.75;;;;;;;5.16;55.66;96208.38;5092364;28;20291;-65
2021/03/28 03:12:10;;;;;;;131.73;66.40;;;;;;;4.95;56.08;96205.81;5091896;28;20260;-66
2021/03/28 03:14:55;;;;;;;135.20;67.10;;;;;;;5.13;55.26;96208.75;5092088;28;20206;-64
2021/03/28 03:17:39;;;;;;;138.88;67.60;;;;;;;5.18;55.28;96206.38;5092425;28;20695;-63
2021/03/28 03:20:37;;;;;;;128.70;65.32;;;;;;;5.14;55.84;96207.78;5091709;28;20206;-66
2021/03/28 03:23:20;;;;;;;131.90;64.13;;;;;;;5.05;56.62;96211.47;5092152;28;20208;-65
2021/03/28 03:26:28;;;;;;;130.73;63.05;;;;;;;5.06;55.94;96213.09;5091466;28;20206;-64
2021/03/28 03:29:06;;;;;;;126.43;60.78;;;;;;;4.90;56.36;96223.78;5092168;28;20214;-63
2021/03/28 03:31:51;;;;;;;113.72;55.88;;;;;;;5.08;55.28;96211.13;5097439;28;20183;-64
2021/03/28 03:34:41;;;;;;;102.78;50.97;;;;;;;4.73;56.75;96222.41;5051816;28;20211;-66
2021/03/28 03:37:25;;;;;;;79.53;42.10;;;;;;;5.00;55.39;96220.81;5052118;28;20624;-66
2021/03/28 03:40:12;;;;;;;72.55;39.63;;;;;;;4.73;56.24;96227.63;5051216;28;20668;-64
2021/03/28 03:42:52;;;;;;;77.60;36.35;;;;;;;4.70;56.29;96228.00;5051272;28;20287;-64
2021/03/28 03:45:57;;;;;;;54.17;29.75;;;;;;;4.46;56.76;96230.97;5050947;28;20192;-64
2021/03/28 03:48:34;;;;;;;53.90;29.85;;;;;;;4.61;56.63;96234.31;5051564;28;20254;-64
2021/03/28 03:51:37;;;;;;;54.85;30.17;;;;;;;4.86;55.68;96238.13;5050962;28;20643;-65
2021/03/28 03:54:13;;;;;;;51.17;29.13;;;;;;;4.75;55.41;96236.03;5049933;28;20280;-67
2021/03/28 03:57:22;;;;;;;57.42;30.38;;;;;;;4.88;55.67;96230.94;5051069;28;20283;-64
2021/03/28 04:00:14;;;;;;;55.10;29.80;;;;;;;4.88;55.28;96243.94;5050422;28;20728;-65
2021/03/28 04:03:04;;;;;;;61.83;32.90;;;;;;;4.78;55.24;96230.44;5047834;28;20208;-65
2021/03/28 04:05:48;;;;;;;69.47;37.58;;;;;;;4.92;55.35;96239.16;5047858;28;20236;-64
2021/03/28 04:08:33;;;;;;;57.30;31.40;;;;;;;4.88;55.17;96236.13;5050937;28;20626;-63
2021/03/28 04:11:16;;;;;;;67.10;34.00;;;;;;;4.71;55.74;96239.97;5050718;28;20267;-65
2021/03/28 04:14:06;;;;;;;71.20;39.00;;;;;;;4.82;55.70;96244.66;5050777;28;20281;-65
2021/03/28 04:17:14;;;;;;;81.70;41.92;;;;;;;4.70;56.26;96240.97;5050601;28;20284;-65
2021/03/28 04:19:40;;;;;;;80.20;42.60;;;;;;;4.75;55.82;96251.59;5046244;28;20220;-66
2021/03/28 04:22:46;;;;;;;79.45;41.95;;;;;;;4.68;55.84;96263.72;5084580;28;20195;-65
2021/03/28 04:25:24;;;;;;;80.68;41.70;;;;;;;4.71;56.23;96258.16;5090988;28;20222;-65
2021/03/28 04:28:09;;;;;;;81.97;41.42;;;;;;;4.63;56.17;96258.28;5091128;28;20203;-66
2021/03/28 04:30:56;;;;;;;85.03;42.78;;;;;;;4.81;55.68;96261.25;5083454;28;20199;-65
2021/03/28 04:33:54;;;;;;;83.68;43.42;;;;;;;4.79;56.19;96263.22;5084359;28;20218;-65
2021/03/28 04:36:23;;;;;;;83.10;42.38;;;;;;;4.93;55.93;96261.53;5072044;28;20210;-64
2021/03/28 04:39:16;;;;;;;79.60;42.00;;;;;;;4.81;56.02;96276.84;5090414;28;20199;-65
2021/03/28 04:42:04;;;;;;;73.38;40.90;;;;;;;4.70;56.58;96273.91;5071184;28;20200;-66
2021/03/28 04:44:55;;;;;;;84.50;41.70;;;;;;;5.05;55.82;96276.44;5073333;28;20198;-65
2021/03/28 04:47:38;;;;;;;80.68;40.03;;;;;;;5.09;55.75;96274.28;5090682;28;20633;-63
2021/03/28 04:50:14;;;;;;;71.53;38.03;;;;;;;5.16;55.26;96278.50;5090182;28;20744;-64
2021/03/28 04:53:31;;;;;;;69.18;39.17;;;;;;;5.32;55.17;96295.66;5089088;28;20573;-64
2021/03/28 04:56:15;;;;;;;71.88;37.90;;;;;;;5.34;54.96;96287.66;5048906;28;20216;-64
2021/03/28 04:58:56;;;;;;;68.07;36.60;;;;;;;5.45;55.23;96294.94;5050247;28;20228;-65
2021/03/28 05:02:05;;;;;;;74.18;36.70;;;;;;;5.60;55.12;96290.44;5053020;28;20207;-64
2021/03/28 05:04:56;;;;;;;69.40;36.03;;;;;;;5.70;55.25;96288.28;5047121;28;20293;-65
2021/03/28 05:07:50;;;;;;;77.68;39.75;;;;;;;5.76;55.01;96297.94;5050053;28;20212;-70
2021/03/28 05:10:52;;;;;;;73.00;39.10;;;;;;;5.91;54.80;96296.84;5049990;28;20192;-64
2021/03/28 05:13:46;;;;;;;71.40;38.47;;;;;;;5.82;55.20;96302.38;5050439;28;20294;-66
2021/03/28 05:16:49;;;;;;;73.07;39.85;;;;;;;6.05;54.27;96303.75;5060914;28;20597;-66
2021/03/28 05:19:35;;;;;;;76.05;42.28;;;;;;;6.17;54.78;96306.59;5089953;28;20219;-65
2021/03/28 05:22:29;;;;;;;76.57;40.75;;;;;;;6.30;53.95;96304.03;5082513;28;20196;-65
2021/03/28 05:25:02;;;;;;;78.88;41.70;;;;;;;6.19;54.12;96299.38;5079701;28;20240;-64
2021/03/28 05:27:45;;;;;;;78.88;41.17;;;;;;;6.32;53.95;96309.88;5090000;28;20278;-66
2021/03/28 05:30:45;;;;;;;82.50;44.65;;;;;;;6.33;53.78;96305.47;5077457;28;20211;-65
2021/03/28 05:33:44;;;;;;;92.93;51.38;;;;;;;6.30;53.83;96314.44;5069804;28;20198;-65
2021/03/28 05:36:16;;;;;;;100.93;55.80;;;;;;;6.35;53.70;96319.88;5049947;28;20220;-64
2021/03/28 05:39:00;;;;;;;95.55;54.17;;;;;;;6.35;53.60;96321.69;5068475;28;20210;-66
2021/03/28 05:41:33;;;;;;;104.57;59.17;;;;;;;6.41;53.90;96319.09;5070717;28;20553;-65
2021/03/28 05:44:31;;;;;;;110.65;61.38;;;;;;;6.40;54.17;96322.72;5090052;28;20696;-64
2021/03/28 05:47:11;;;;;;;111.85;62.47;;;;;;;6.26;55.00;96326.25;5089837;28;20199;-64
2021/03/28 05:49:37;;;;;;;122.07;68.45;;;;;;;6.28;54.92;96329.47;5089640;28;20187;-65
2021/03/28 05:52:38;;;;;;;107.68;64.95;;;;;;;6.56;54.33;96338.00;5093296;28;20678;-66
2021/03/28 05:55:31;;;;;;;121.82;68.32;;;;;;;6.87;53.89;96340.91;5082688;28;20647;-65
2021/03/28 05:58:31;;;;;;;125.63;68.43;;;;;;;6.86;53.21;96334.06;5077463;28;20208;-64
2021/03/28 06:01:52;;;;;;;116.38;64.55;;;;;;;7.15;53.26;96332.94;5088231;28;20333;-64
2021/03/28 06:04:34;;;;;;;102.57;60.30;;;;;;;7.13;52.33;96338.31;5080739;28;20203;-64
2021/03/28 06:07:38;;;;;;;112.43;66.40;;;;;;;7.35;52.84;96338.16;5067825;28;20298;-65
2021/03/28 06:10:45;;;;;;;96.68;57.15;;;;;;;7.28;51.99;96345.19;5075152;28;20191;-66
2021/03/28 06:13:47;;;;;;;94.80;58.28;;;;;;;7.48;51.50;96333.72;5054722;28;20207;-66
2021/03/28 06:16:38;;;;;;;86.78;53.47;;;;;;;7.60;51.15;96341.75;5068899;28;20266;-67
2021/03/28 06:19:21;;;;;;;85.15;48.55;;;;;;;7.66;51.20;96346.19;5076367;28;20271;-66
2021/03/28 06:22:03;;;;;;;75.43;45.85;;;;;;;7.83;51.01;96347.34;5064841;28;20680;-66
2021/03/28 06:25:13;;;;;;;72.13;40.65;;;;;;;7.87;51.48;96348.56;5059075;28;20196;-66
2021/03/28 06:28:04;;;;;;;56.13;32.15;;;;;;;7.99;50.52;96344.34;5061233;28;20211;-66
2021/03/28 06:30:55;;;;;;;59.45;32.55;;;;;;;8.11;50.56;96340.09;5063062;28;20188;-66
2021/03/28 06:33:30;;;;;;;57.25;34.28;;;;;;;8.19;50.37;96342.50;5052618;28;20635;-65
2021/03/28 06:36:35;;;;;;;54.17;33.13;;;;;;;8.30;50.11;96334.06;5060246;28;20195;-67
2021/03/28 06:39:38;;;;;;;60.75;32.70;;;;;;;8.42;50.11;96342.84;5060237;28;20196;-65
2021/03/28 06:42:10;;;;;;;50.23;30.80;;;;;;;8.67;49.60;96346.34;5061987;28;20650;-66
2021/03/28 06:44:55;;;;;;;45.85;28.35;;;;;;;8.78;49.54;96347.50;5061564;28;20442;-67
2021/03/28 06:47:46;;;;;;;47.20;27.60;;;;;;;8.89;49.57;96349.47;5072168;28;20215;-69
2021/03/28 06:50:31;;;;;;;44.37;28.03;;;;;;;9.01;48.89;96345.97;5071769;28;20983;-67
2021/03/28 06:53:41;;;;;;;46.27;28.00;;;;;;;9.02;48.41;96344.97;5059385;28;20525;-68
2021/03/28 06:56:42;;;;;;;43.77;24.83;;;;;;;9.19;48.64;96350.50;5063977;28;20439;-69
2021/03/28 06:59:45;;;;;;;43.03;25.83;;;;;;;9.33;49.36;96351.19;5067731;28;20422;-64
2021/03/28 07:02:23;;;;;;;41.33;27.50;;;;;;;9.68;47.51;96349.72;5071342;28;20511;-66
2021/03/28 07:05:18;;;;;;;44.80;27.33;;;;;;;9.83;46.28;96348.41;5074335;28;20863;-65
2021/03/28 07:08:26;;;;;;;52.50;29.97;;;;;;;10.09;46.40;96342.94;5064859;28;20489;-68
2021/03/28 07:10:52;;;;;;;58.67;35.60;;;;;;;10.37;46.28;96350.31;5050772;28;20447;-68
2021/03/28 07:13:39;;;;;;;55.83;37.50;;;;;;;10.37;45.66;96350.31;5051363;28;20968;-65
2021/03/28 07:16:21;;;;;;;58.97;36.27;;;;;;;10.22;45.56;96349.84;5050295;28;21059;-64
2021/03/28 07:19:20;;;;;;;59.80;34.90;;;;;;;10.41;46.04;96355.91;5051945;28;20431;-66
2021/03/28 07:22:08;;;;;;;53.67;34.43;;;;;;;10.12;46.52;96362.66;5051417;28;20455;-65
2021/03/28 07:24:52;;;;;;;56.17;35.00;;;;;;;10.10;46.77;96359.44;5051304;28;20435;-67
2021/03/28 07:27:38;;;;;;;68.33;42.83;;;;;;;10.10;47.22;96369.94;5051709;28;20435;-68
2021/03/28 07:30:23;;;;;;;126.27;92.03;;;;;;;10.28;46.91;96362.09;5050909;28;20534;-66
2021/03/28 07:33:19;;;;;;;61.23;34.87;;;;;;;10.33;46.46;96370.09;5053289;28;20815;-65
2021/03/28 07:36:06;;;;;;;53.87;33.60;;;;;;;9.88;47.23;96363.44;5060690;28;21076;-65
2021/03/28 07:38:56;;;;;;;54.70;31.97;;;;;;;10.19;46.15;96374.69;5056381;28;20431;-65
2021/03/28 07:41:46;;;;;;;56.83;33.17;;;;;;;10.15;45.87;96373.50;5060371;28;20505;-66
2021/03/28 07:44:40;;;;;;;45.27;31.47;;;;;;;10.02;46.06;96372.78;5084516;28;20472;-64
2021/03/28 07:47:23;;;;;;;53.20;32.13;;;;;;;10.34;45.60;96371.72;5071026;28;20452;-64
2021/03/28 07:50:39;;;;;;;49.60;31.50;;;;;;;10.47;45.81;96379.44;5069423;28;20478;-65
2021/03/28 07:53:24;;;;;;;89.13;60.03;;;;;;;10.66;45.20;96380.22;5071320;28;20447;-67
2021/03/28 07:56:12;;;;;;;143.43;91.67;;;;;;;10.96;44.67;96374.00;5051347;28;20443;-66
2021/03/28 07:58:58;;;;;;;51.53;32.37;;;;;;;11.28;44.95;96379.03;5054816;28;20463;-65
2021/03/28 08:01:51;;;;;;;55.83;34.53;;;;;;;11.45;45.38;96374.72;5067539;28;20911;-69
2021/03/28 08:04:37;;;;;;;267.70;202.53;;;;;;;11.70;42.93;96372.75;5071245;28;20800;-68
2021/03/28 08:07:32;;;;;;;58.43;37.27;;;;;;;11.70;41.79;96375.38;5061591;28;20488;-64
2021/03/28 08:10:01;;;;;;;60.27;37.43;;;;;;;11.94;42.06;96369.94;5050871;28;21430;-63
2021/03/28 08:13:01;;;;;;;52.03;35.17;;;;;;;12.02;40.53;96371.44;5051925;28;20470;-64
2021/03/28 08:15:27;;;;;;;52.73;33.03;;;;;;;12.12;40.92;96376.91;5050627;28;20500;-67
2021/03/28 08:17:58;;;;;;;56.50;33.87;;;;;;;11.81;41.16;96348.34;5051356;28;20824;-65
2021/03/28 08:20:42;;;;;;;54.37;34.00;;;;;;;12.27;40.66;96372.00;5050438;28;20481;-67
2021/03/28 08:23:21;;;;;;;49.67;32.50;;;;;;;12.36;40.30;96364.53;5050930;28;20473;-64
2021/03/28 08:26:22;;;;;;;49.40;29.50;;;;;;;12.67;39.89;96362.34;5050092;28;20441;-64
2021/03/28 08:29:13;;;;;;;40.03;24.47;;;;;;;12.92;39.15;96365.47;5051123;28;20442;-67
2021/03/28 08:32:16;;;;;;;27.87;14.97;;;;;;;12.82;37.68;96354.75;5049990;28;20435;-65
2021/03/28 08:34:51;;;;;;;22.67;15.77;;;;;;;13.08;37.69;96354.22;5065237;28;20453;-64
2021/03/28 08:37:32;;;;;;;23.80;16.10;;;;;;;13.27;36.91;96354.00;5050493;28;20466;-66
2021/03/28 08:40:16;;;;;;;24.23;15.43;;;;;;;13.35;38.69;96357.09;5050093;28;20563;-67
2021/03/28 08:43:00;;;;;;;61.47;40.53;;;;;;;13.69;37.52;96352.63;5049038;28;20976;-67
2021/03/28 08:46:11;;;;;;;24.83;14.63;;;;;;;13.73;37.54;96348.50;5050014;28;20518;-64
2021/03/28 08:48:54;;;;;;;17.70;12.50;;;;;;;13.69;37.38;96332.38;5045307;28;20443;-66
2021/03/28 08:51:35;;;;;;;22.17;11.77;;;;;;;14.18;36.71;96357.06;5049879;28;20439;-64
2021/03/28 08:54:30;;;;;;;21.93;10.93;;;;;;;14.15;37.64;96357.56;5050469;28;20435;-64
2021/03/28 08:57:06;;;;;;;16.07;9.53;;;;;;;14.59;38.07;96348.72;5049847;28;20446;-66
2021/03/28 08:59:36;;;;;;;20.77;9.93;;;;;;;14.73;38.43;96336.75;5050063;28;20438;-65
2021/03/28 09:02:05;;;;;;;19.30;10.67;;;;;;;14.98;37.34;96344.19;5049478;28;20442;-67
2021/03/28 09:04:46;;;;;;;20.20;11.20;;;;;;;15.18;41.56;96342.53;5050023;28;20447;-67
2021/03/28 09:07:23;;;;;;;17.33;10.97;;;;;;;15.19;37.98;96343.34;5060798;28;20426;-66
2021/03/28 09:10:17;;;;;;;19.97;10.30;;;;;;;15.15;37.79;96348.31;5069599;28;20457;-66
2021/03/28 09:12:53;;;;;;;50.63;37.13;;;;;;;15.29;37.59;96340.78;5070123;28;20844;-68
2021/03/28 09:15:31;;;;;;;14.70;9.83;;;;;;;15.09;40.43;96337.97;5068458;28;20438;-64
2021/03/28 09:18:27;;;;;;;16.80;10.20;;;;;;;15.63;40.49;96349.31;5070339;28;20468;-66
2021/03/28 09:21:28;;;;;;;15.60;9.50;;;;;;;15.60;36.48;96344.56;5074722;28;20481;-64
2021/03/28 09:24:06;;;;;;;13.43;9.63;;;;;;;15.35;37.65;96337.16;5068654;28;20426;-66
2021/03/28 09:26:51;;;;;;;12.90;9.00;;;;;;;15.41;37.13;96338.03;5073359;28;20445;-66
2021/03/28 09:29:40;;;;;;;13.73;9.00;;;;;;;15.91;37.62;96341.09;5074088;28;20851;-64
2021/03/28 09:32:19;;;;;;;16.50;9.43;;;;;;;16.10;37.16;96329.06;5074222;28;21360;-66
2021/03/28 09:35:26;;;;;;;15.10;8.93;;;;;;;15.66;37.07;96335.59;5073270;28;20444;-66
2021/03/28 09:38:11;;;;;;;14.13;9.30;;;;;;;14.94;38.75;96332.50;5086208;28;20448;-66
2021/03/28 09:40:53;;;;;;;16.00;9.67;;;;;;;15.83;37.52;96333.63;5054324;28;20482;-65
2021/03/28 09:43:28;;;;;;;19.40;10.00;;;;;;;15.82;37.03;96343.41;5077163;28;20450;-66
2021/03/28 09:46:01;;;;;;;16.67;10.40;;;;;;;15.88;37.55;96341.59;5064002;28;20466;-65
2021/03/28 09:48:53;;;;;;;14.17;10.70;;;;;;;15.67;37.42;96329.28;5061831;28;20439;-64
2021/03/28 09:51:53;;;;;;;19.07;12.03;;;;;;;15.88;40.83;96338.94;5071545;28;20479;-65
2021/03/28 09:54:35;;;;;;;20.20;13.73;;;;;;;15.73;38.01;96331.69;5072363;28;20485;-68
2021/03/28 09:57:01;;;;;;;33.73;26.57;;;;;;;15.87;37.65;96340.03;5065257;28;20433;-67
2021/03/28 09:59:36;;;;;;;17.27;10.03;;;;;;;16.20;37.56;96335.22;5073124;28;20430;-64
2021/03/28 10:02:40;;;;;;;13.97;9.87;;;;;;;15.42;39.01;96343.06;5066311;28;20437;-65
2021/03/28 10:05:20;;;;;;;13.97;9.83;;;;;;;15.29;40.57;96337.38;5063388;28;20434;-65
2021/03/28 10:07:58;;;;;;;18.27;10.23;;;;;;;15.51;39.93;96346.06;5065383;28;20462;-64
2021/03/28 10:10:54;;;;;;;16.77;10.10;;;;;;;15.65;40.12;96347.22;5053029;28;20508;-66
2021/03/28 10:13:51;;;;;;;14.83;10.20;;;;;;;15.63;40.64;96334.28;5052181;28;20554;-64
2021/03/28 10:16:25;;;;;;;12.40;10.03;;;;;;;16.26;40.21;96330.75;5054841;28;20427;-64
2021/03/28 10:19:36;;;;;;;14.63;10.13;;;;;;;16.70;40.45;96329.41;5055353;28;20434;-64
2021/03/28 10:22:46;;;;;;;61.60;49.30;;;;;;;15.89;41.21;96327.34;5032778;28;20447;-66
2021/03/28 10:25:38;;;;;;;16.40;10.17;;;;;;;16.38;41.47;96330.56;5046680;28;20457;-64
2021/03/28 10:28:25;;;;;;;16.80;9.80;;;;;;;17.00;39.58;96337.50;5068212;28;20454;-65
2021/03/28 10:31:14;;;;;;;136.73;15.93;;;;;;;16.88;40.64;96331.59;5062828;28;20447;-68
2021/03/28 10:34:07;;;;;;;10.40;9.23;;;;;;;16.88;40.11;96326.31;5064260;28;20447;-65
2021/03/28 10:36:45;;;;;;;11.37;9.53;;;;;;;16.62;41.95;96334.41;5064225;28;20451;-64
2021/03/28 10:39:22;;;;;;;13.60;10.50;;;;;;;16.54;41.80;96333.06;5069235;28;20437;-65
2021/03/28 10:41:59;;;;;;;15.57;10.67;;;;;;;16.32;41.81;96337.66;5069514;28;20519;-64
2021/03/28 10:44:28;;;;;;;18.30;10.70;;;;;;;16.52;41.73;96337.81;5071179;28;20503;-64
2021/03/28 10:47:32;;;;;;;13.33;8.33;;;;;;;16.17;42.33;96346.31;5060259;28;20435;-64
2021/03/28 10:50:23;;;;;;;16.57;10.93;;;;;;;16.30;42.66;96352.19;5062590;28;20434;-64
2021/03/28 10:53:27;;;;;;;15.17;11.03;;;;;;;16.26;42.43;96346.63;5073528;28;20473;-64
2021/03/28 10:56:24;;;;;;;16.90;11.43;;;;;;;16.75;41.69;96341.91;5065573;28;20434;-63
2021/03/28 10:59:06;;;;;;;14.90;10.03;;;;;;;16.97;41.40;96348.59;5067067;28;20491;-64
2021/03/28 11:01:45;;;;;;;14.87;11.70;;;;;;;17.05;43.00;96352.59;5062692;28;20489;-65
2021/03/28 11:04:29;;;;;;;14.47;10.83;;;;;;;16.50;42.83;96350.50;5086506;28;20449;-64
2021/03/28 11:07:41;;;;;;;20.97;11.43;;;;;;;16.28;43.23;96363.03;5091475;28;20446;-65
2021/03/28 11:10:26;;;;;;;21.27;11.57;;;;;;;15.77;44.33;96367.16;5091237;28;20453;-64
2021/03/28 11:13:14;;;;;;;18.70;12.30;;;;;;;15.32;45.46;96371.19;5090687;28;20421;-65
2021/03/28 11:16:02;;;;;;;17.40;12.00;;;;;;;15.06;45.88;96365.66;5091579;28;20467;-64
2021/03/28 11:18:49;;;;;;;18.83;12.40;;;;;;;14.81;46.50;96373.28;5087586;28;20920;-65
2021/03/28 11:21:22;;;;;;;14.17;11.33;;;;;;;15.11;45.67;96368.34;5071170;28;20476;-66
2021/03/28 11:24:18;;;;;;;15.23;11.10;;;;;;;15.70;44.81;96360.47;5071463;28;20525;-66
2021/03/28 11:27:43;;;;;;;17.93;11.57;;;;;;;15.59;43.85;96369.38;5071472;28;20466;-63
2021/03/28 11:30:24;;;;;;;14.33;11.10;;;;;;;15.39;44.31;96359.38;5060606;28;20449;-65
2021/03/28 11:33:18;;;;;;;16.23;12.23;;;;;;;15.58;43.86;96357.22;5071312;28;20433;-68
2021/03/28 11:35:53;;;;;;;19.23;12.57;;;;;;;16.21;43.15;96347.41;5071071;28;20454;-64
2021/03/28 11:38:20;;;;;;;18.03;11.77;;;;;;;16.22;42.45;96353.50;5071405;28;20453;-64
2021/03/28 11:41:12;;;;;;;18.23;11.77;;;;;;;15.21;44.02;96357.91;5070598;28;20497;-65
2021/03/28 11:43:52;;;;;;;59.00;39.10;;;;;;;15.71;44.47;96364.75;5062805;28;20441;-65
2021/03/28 11:46:27;;;;;;;19.83;12.87;;;;;;;16.04;42.86;96346.75;5081953;28;20476;-65
2021/03/28 11:48:54;;;;;;;16.60;12.07;;;;;;;15.45;43.12;96354.97;5090715;28;20527;-64
2021/03/28 11:51:26;;;;;;;15.17;12.40;;;;;;;15.51;42.61;96351.34;5090909;28;20448;-66
2021/03/28 11:54:14;;;;;;;17.17;14.20;;;;;;;15.67;43.24;96355.72;5091285;28;20444;-67
2021/03/28 11:56:47;;;;;;;19.47;13.47;;;;;;;15.73;44.02;96357.34;5088515;28;20790;-65
2021/03/28 11:59:22;;;;;;;40.60;31.70;;;;;;;15.88;42.87;96349.53;5080742;28;20548;-66
2021/03/28 12:01:55;;;;;;;19.67;14.70;;;;;;;15.48;43.49;96359.75;5088937;28;20484;-66
2021/03/28 12:04:30;;;;;;;16.63;12.93;;;;;;;14.94;43.86;96362.31;5091215;28;20444;-66
2021/03/28 12:07:25;;;;;;;19.47;14.93;;;;;;;15.37;43.21;96352.75;5079028;28;20820;-63
2021/03/28 12:10:16;;;;;;;18.70;15.17;;;;;;;15.54;42.77;96353.47;5090046;28;21005;-67
2021/03/28 12:12:49;;;;;;;20.47;15.40;;;;;;;15.45;43.25;96357.63;5090288;28;20455;-63
2021/03/28 12:15:46;;;;;;;19.60;15.57;;;;;;;15.15;43.59;96352.78;5091871;28;20453;-63
2021/03/28 12:18:26;;;;;;;23.23;16.97;;;;;;;15.17;43.73;96354.16;5091276;28;20476;-68
2021/03/28 12:20:58;;;;;;;20.13;15.40;;;;;;;14.65;44.40;96353.00;5091287;28;20580;-65
2021/03/28 12:23:51;;;;;;;22.80;17.03;;;;;;;14.80;43.89;96349.75;5087278;28;20471;-65
2021/03/28 12:26:30;;;;;;;21.97;16.80;;;;;;;14.27;45.20;96350.38;5073883;28;20910;-66
2021/03/28 12:29:05;;;;;;;21.87;17.27;;;;;;;14.63;44.30;96333.19;5087529;28;21041;-65
2021/03/28 12:31:32;;;;;;;20.83;15.57;;;;;;;14.44;44.14;96337.16;5070072;28;20464;-65
2021/03/28 12:34:07;;;;;;;21.63;16.20;;;;;;;14.77;43.99;96337.88;5070118;28;21005;-66
2021/03/28 12:37:04;;;;;;;20.70;16.83;;;;;;;14.86;43.73;96328.47;5070003;28;20442;-65
2021/03/28 12:39:58;;;;;;;19.30;15.73;;;;;;;14.77;43.34;96329.94;5070817;28;20481;-64
2021/03/28 12:42:29;;;;;;;24.60;17.43;;;;;;;14.49;44.48;96332.75;5069929;28;20437;-65
2021/03/28 12:45:08;;;;;;;22.67;17.13;;;;;;;14.66;44.12;96327.41;5069865;28;20478;-71
2021/03/28 12:47:49;;;;;;;25.43;18.80;;;;;;;14.49;44.12;96324.84;5071365;28;20442;-70
2021/03/28 12:50:17;;;;;;;57.93;42.40;;;;;;;15.22;44.39;96333.06;5071230;28;20529;-69